createdAt,value
2022-10-26T00:01:21.628Z,100470.44
2022-10-26T00:03:50.985Z,100483.63
2022-10-26T00:06:20.897Z,100479.22
2022-10-26T00:08:53.053Z,100473.09
2022-10-26T00:11:20.781Z,100464.22
2022-10-26T00:13:49.095Z,100474.66
2022-10-26T00:16:23.867Z,100480.88
2022-10-26T00:18:53.012Z,100474.75
2022-10-26T00:21:21.619Z,100484.44
2022-10-26T00:23:49.406Z,100487.88
2022-10-26T00:26:16.758Z,100490.31
2022-10-26T00:28:44.193Z,100483.16
2022-10-26T00:31:17.634Z,100488.25
2022-10-26T00:33:47.133Z,100483.84
2022-10-26T00:36:16.803Z,100489.03
2022-10-26T00:38:53.001Z,100495.31
2022-10-26T00:41:30.375Z,100491.78
2022-10-26T00:43:58.342Z,100509.19
2022-10-26T00:46:33.891Z,100519.47
2022-10-26T00:49:09.972Z,100520.41
2022-10-26T00:51:45.337Z,100520.34
2022-10-26T00:54:20.459Z,100532.53
2022-10-26T00:56:51.999Z,100537.59
2022-10-26T00:59:22.383Z,100524.38
2022-10-26T01:01:51.224Z,100512.19
2022-10-26T01:04:20.607Z,100518.50
2022-10-26T01:06:49.036Z,100523.78
2022-10-26T01:09:18.030Z,100529.06
2022-10-26T01:11:45.551Z,100533.56
2022-10-26T01:14:18.511Z,100536.22
2022-10-26T01:16:56.354Z,100539.81
2022-10-26T01:19:24.071Z,100536.19
2022-10-26T01:21:51.346Z,100549.63
2022-10-26T01:24:24.178Z,100553.97
2022-10-26T01:27:21.455Z,100552.25
2022-10-26T01:30:20.520Z,100567.94
2022-10-26T01:32:54.707Z,100564.31
2022-10-26T01:35:32.868Z,100578.38
2022-10-26T01:38:22.011Z,100578.22
2022-10-26T01:41:01.176Z,100572.31
2022-10-26T01:43:34.255Z,100577.63
2022-10-26T01:46:07.195Z,100578.63
2022-10-26T01:48:36.459Z,100569.69
2022-10-26T01:51:07.458Z,100567.84
2022-10-26T01:53:34.961Z,100582.00
2022-10-26T01:56:03.049Z,100593.31
2022-10-26T01:58:55.748Z,100588.84
2022-10-26T02:01:38.534Z,100585.38
2022-10-26T02:04:27.411Z,100592.53
2022-10-26T02:06:58.829Z,100599.66
2022-10-26T02:09:34.894Z,100600.53
2022-10-26T02:12:13.504Z,100599.50
2022-10-26T02:15:02.026Z,100602.28
2022-10-26T02:17:55.885Z,100604.03
2022-10-26T02:20:31.974Z,100593.50
2022-10-26T02:23:05.551Z,100589.09
2022-10-26T02:25:37.167Z,100596.09
2022-10-26T02:28:12.973Z,100594.50
2022-10-26T02:30:43.690Z,100593.63
2022-10-26T02:33:13.778Z,100600.72
2022-10-26T02:35:48.157Z,100599.84
2022-10-26T02:38:20.854Z,100597.25
2022-10-26T02:40:51.843Z,100592.19
2022-10-26T02:43:23.214Z,100594.88
2022-10-26T02:45:59.831Z,100605.47
2022-10-26T02:48:27.555Z,100601.97
2022-10-26T02:51:15.707Z,100603.63
2022-10-26T02:53:58.323Z,100602.78
2022-10-26T02:56:44.787Z,100596.75
2022-10-26T02:59:15.454Z,100616.88
2022-10-26T03:01:45.229Z,100609.91
2022-10-26T03:04:14.893Z,100611.59
2022-10-26T03:06:43.884Z,100610.72
2022-10-26T03:09:11.736Z,100616.03
2022-10-26T03:11:39.152Z,100612.72
2022-10-26T03:14:08.399Z,100624.09
2022-10-26T03:16:35.880Z,100617.94
2022-10-26T03:19:03.302Z,100624.88
2022-10-26T03:21:31.077Z,100629.22
2022-10-26T03:23:58.644Z,100626.56
2022-10-26T03:26:26.047Z,100626.53
2022-10-26T03:28:54.996Z,100629.19
2022-10-26T03:31:23.163Z,100638.16
2022-10-26T03:33:52.544Z,100638.88
2022-10-26T03:36:20.013Z,100640.63
2022-10-26T03:38:47.481Z,100644.13
2022-10-26T03:41:14.882Z,100644.09
2022-10-26T03:43:44.375Z,100637.19
2022-10-26T03:46:12.513Z,100643.28
2022-10-26T03:48:40.295Z,100638.00
2022-10-26T03:51:07.702Z,100647.75
2022-10-26T03:53:35.698Z,100642.38
2022-10-26T03:56:03.038Z,100645.19
2022-10-26T03:58:32.013Z,100647.00
2022-10-26T04:00:59.454Z,100646.91
2022-10-26T04:03:27.090Z,100652.25
2022-10-26T04:05:54.501Z,100643.47
2022-10-26T04:08:21.953Z,100655.63
2022-10-26T04:10:49.341Z,100658.13
2022-10-26T04:13:18.136Z,100649.38
2022-10-26T04:15:46.418Z,100652.03
2022-10-26T04:18:14.019Z,100655.53
2022-10-26T04:20:42.480Z,100662.75
2022-10-26T04:23:13.391Z,100653.06
2022-10-26T04:25:41.523Z,100650.38
2022-10-26T04:28:09.848Z,100658.28
2022-10-26T04:30:38.123Z,100647.69
2022-10-26T04:33:06.695Z,100650.25
2022-10-26T04:35:34.934Z,100650.25
2022-10-26T04:38:06.355Z,100648.41
2022-10-26T04:40:34.847Z,100658.78
2022-10-26T04:43:02.463Z,100665.09
2022-10-26T04:45:31.192Z,100669.53
2022-10-26T04:48:00.256Z,100685.31
2022-10-26T04:50:28.497Z,100676.72
2022-10-26T04:52:56.188Z,100673.94
2022-10-26T04:55:23.928Z,100673.06
2022-10-26T04:57:55.917Z,100679.28
2022-10-26T05:00:26.996Z,100679.28
2022-10-26T05:03:03.391Z,100686.28
2022-10-26T05:05:32.395Z,100687.09
2022-10-26T05:07:59.985Z,100688.09
2022-10-26T05:10:29.270Z,100695.13
2022-10-26T05:12:59.338Z,100701.28
2022-10-26T05:15:27.540Z,100700.44
2022-10-26T05:17:57.874Z,100705.75
2022-10-26T05:20:32.704Z,100703.00
2022-10-26T05:23:11.759Z,100703.81
2022-10-26T05:25:41.329Z,100710.75
2022-10-26T05:28:14.373Z,100712.47
2022-10-26T05:30:43.664Z,100713.38
2022-10-26T05:33:14.190Z,100716.88
2022-10-26T05:35:42.405Z,100702.84
2022-10-26T05:38:14.796Z,100709.75
2022-10-26T05:40:50.695Z,100715.91
2022-10-26T05:43:21.231Z,100723.72
2022-10-26T05:45:51.175Z,100724.59
2022-10-26T05:48:18.761Z,100729.03
2022-10-26T05:50:46.285Z,100739.50
2022-10-26T05:53:13.703Z,100752.66
2022-10-26T05:55:43.431Z,100749.94
2022-10-26T05:58:13.208Z,100747.22
2022-10-26T06:01:02.169Z,100750.88
2022-10-26T06:04:08.311Z,100743.75
2022-10-26T06:06:41.911Z,100741.09
2022-10-26T06:09:13.863Z,100745.34
2022-10-26T06:11:42.787Z,100757.63
2022-10-26T06:14:12.516Z,100751.41
2022-10-26T06:16:49.764Z,100755.81
2022-10-26T06:19:36.560Z,100764.56
2022-10-26T06:22:28.279Z,100758.31
2022-10-26T06:25:35.617Z,100768.03
2022-10-26T06:28:24.027Z,100768.00
2022-10-26T06:30:52.239Z,100761.16
2022-10-26T06:33:29.935Z,100770.78
2022-10-26T06:36:21.676Z,100775.13
2022-10-26T06:38:57.251Z,100793.47
2022-10-26T06:41:27.177Z,100791.69
2022-10-26T06:43:54.786Z,100798.03
2022-10-26T06:46:43.682Z,100803.34
2022-10-26T06:49:31.503Z,100807.69
2022-10-26T06:52:03.663Z,100809.41
2022-10-26T06:54:52.008Z,100819.06
2022-10-26T06:57:28.155Z,100828.63
2022-10-26T07:00:00.807Z,100816.03
2022-10-26T07:02:29.002Z,100818.44
2022-10-26T07:04:56.514Z,100825.16
2022-10-26T07:07:29.009Z,100819.53
2022-10-26T07:09:56.996Z,100819.34
2022-10-26T07:12:26.021Z,100835.19
2022-10-26T07:14:55.085Z,100842.25
2022-10-26T07:17:22.489Z,100838.59
2022-10-26T07:19:50.948Z,100854.34
2022-10-26T07:22:18.372Z,100852.38
2022-10-26T07:24:50.399Z,100859.00
2022-10-26T07:27:24.945Z,100854.13
2022-10-26T07:29:54.084Z,100857.41
2022-10-26T07:32:21.541Z,100868.78
2022-10-26T07:34:50.501Z,100870.13
2022-10-26T07:37:18.498Z,100870.88
2022-10-26T07:39:46.311Z,100882.28
2022-10-26T07:42:15.895Z,100870.25
2022-10-26T07:44:46.112Z,100871.84
2022-10-26T07:47:13.576Z,100881.97
2022-10-26T07:49:41.329Z,100878.28
2022-10-26T07:52:09.927Z,100875.44
2022-10-26T07:54:37.391Z,100876.16
2022-10-26T07:57:06.872Z,100883.94
2022-10-26T07:59:34.406Z,100882.78
2022-10-26T08:02:02.811Z,100882.09
2022-10-26T08:04:31.091Z,100890.22
2022-10-26T08:06:59.011Z,100906.81
2022-10-26T08:09:26.644Z,100918.63
2022-10-26T08:11:56.430Z,100915.09
2022-10-26T08:14:23.819Z,100921.81
2022-10-26T08:16:52.734Z,100913.84
2022-10-26T08:19:21.084Z,100931.66
2022-10-26T08:21:48.852Z,100926.69
2022-10-26T08:24:17.742Z,100928.38
2022-10-26T08:26:45.127Z,100931.03
2022-10-26T08:29:13.383Z,100930.63
2022-10-26T08:31:40.726Z,100935.31
2022-10-26T08:34:08.543Z,100943.31
2022-10-26T08:36:38.580Z,100946.06
2022-10-26T08:39:06.724Z,100953.94
2022-10-26T08:41:38.097Z,100962.97
2022-10-26T08:44:16.563Z,100961.00
2022-10-26T08:46:50.367Z,100962.44
2022-10-26T08:49:44.356Z,100962.84
2022-10-26T08:52:17.757Z,100963.09
2022-10-26T08:54:57.563Z,100978.34
2022-10-26T08:57:34.799Z,100984.13
2022-10-26T09:00:06.262Z,100987.34
2022-10-26T09:02:34.484Z,100994.66
2022-10-26T09:05:02.291Z,100994.00
2022-10-26T09:07:47.151Z,100995.09
2022-10-26T09:10:35.543Z,100996.94
2022-10-26T09:13:33.561Z,101006.81
2022-10-26T09:16:14.209Z,101012.22
2022-10-26T09:18:51.117Z,101028.25
2022-10-26T09:21:27.789Z,101038.94
2022-10-26T09:24:37.669Z,101043.50
2022-10-26T09:27:21.816Z,101061.34
2022-10-26T09:29:51.915Z,101048.22
2022-10-26T09:32:35.025Z,101058.97
2022-10-26T09:35:11.651Z,101070.53
2022-10-26T09:37:47.273Z,101071.50
2022-10-26T09:40:39.467Z,101071.50
2022-10-26T09:43:18.618Z,101073.34
2022-10-26T09:45:51.191Z,101076.00
2022-10-26T09:48:20.423Z,101076.81
2022-10-26T09:50:49.961Z,101074.22
2022-10-26T09:53:18.533Z,101076.91
2022-10-26T09:55:48.537Z,101069.81
2022-10-26T09:58:29.297Z,101083.91
2022-10-26T10:00:57.889Z,101084.84
2022-10-26T10:03:27.957Z,101083.16
2022-10-26T10:06:20.219Z,101094.50
2022-10-26T10:09:07.167Z,101091.47
2022-10-26T10:11:45.690Z,101106.19
2022-10-26T10:14:17.976Z,101099.16
2022-10-26T10:17:23.184Z,101099.84
2022-10-26T10:19:52.765Z,101110.28
2022-10-26T10:22:25.308Z,101110.41
2022-10-26T10:24:59.182Z,101120.09
2022-10-26T10:27:29.325Z,101116.69
2022-10-26T10:30:03.014Z,101117.63
2022-10-26T10:32:37.197Z,101114.97
2022-10-26T10:35:27.739Z,101124.41
2022-10-26T10:37:56.686Z,101120.69
2022-10-26T10:40:27.614Z,101121.44
2022-10-26T10:43:14.502Z,101128.47
2022-10-26T10:45:48.823Z,101131.13
2022-10-26T10:48:20.772Z,101140.84
2022-10-26T10:50:56.201Z,101144.38
2022-10-26T10:53:53.442Z,101151.41
2022-10-26T10:56:23.883Z,101158.56
2022-10-26T10:59:13.279Z,101162.22
2022-10-26T11:01:54.708Z,101165.06
2022-10-26T11:04:45.321Z,101179.09
2022-10-26T11:07:16.043Z,101173.13
2022-10-26T11:09:49.660Z,101175.84
2022-10-26T11:12:23.591Z,101173.19
2022-10-26T11:15:00.814Z,101175.75
2022-10-26T11:17:33.269Z,101174.84
2022-10-26T11:20:12.500Z,101175.41
2022-10-26T11:22:54.557Z,101178.50
2022-10-26T11:25:30.659Z,101176.28
2022-10-26T11:28:11.875Z,101191.94
2022-10-26T11:30:48.911Z,101185.44
2022-10-26T11:33:20.899Z,101172.19
2022-10-26T11:36:06.526Z,101179.22
2022-10-26T11:38:56.361Z,101189.84
2022-10-26T11:41:33.828Z,101175.84
2022-10-26T11:44:07.346Z,101173.13
2022-10-26T11:47:05.108Z,101174.47
2022-10-26T11:50:06.532Z,101178.28
2022-10-26T11:52:47.862Z,101176.16
2022-10-26T11:55:18.656Z,101176.78
2022-10-26T11:57:50.635Z,101171.56
2022-10-26T12:00:20.983Z,101169.84
2022-10-26T12:03:04.399Z,101167.56
2022-10-26T12:05:40.625Z,101173.50
2022-10-26T12:08:17.111Z,101165.13
2022-10-26T12:10:51.551Z,101165.00
2022-10-26T12:13:49.877Z,101165.06
2022-10-26T12:16:32.476Z,101154.50
2022-10-26T12:19:07.656Z,101163.34
2022-10-26T12:21:36.111Z,101172.00
2022-10-26T12:24:26.471Z,101175.22
2022-10-26T12:26:58.226Z,101181.47
2022-10-26T12:29:30.611Z,101184.06
2022-10-26T12:32:00.858Z,101173.59
2022-10-26T12:34:30.234Z,101179.00
2022-10-26T12:36:57.955Z,101169.53
2022-10-26T12:39:41.342Z,101173.94
2022-10-26T12:42:15.221Z,101169.34
2022-10-26T12:44:50.672Z,101176.31
2022-10-26T12:47:30.799Z,101172.03
2022-10-26T12:49:58.823Z,101174.56
2022-10-26T12:52:29.120Z,101172.88
2022-10-26T12:55:12.647Z,101174.78
2022-10-26T12:58:00.384Z,101169.50
2022-10-26T13:00:29.346Z,101176.47
2022-10-26T13:03:18.846Z,101173.66
2022-10-26T13:06:12.041Z,101173.59
2022-10-26T13:08:43.159Z,101173.47
2022-10-26T13:11:27.743Z,101174.28
2022-10-26T13:13:58.316Z,101164.63
2022-10-26T13:16:28.791Z,101167.28
2022-10-26T13:18:58.038Z,101164.66
2022-10-26T13:21:27.725Z,101156.47
2022-10-26T13:23:55.118Z,101158.94
2022-10-26T13:26:28.184Z,101160.56
2022-10-26T13:29:04.000Z,101157.94
2022-10-26T13:31:34.580Z,101163.03
2022-10-26T13:34:21.663Z,101151.50
2022-10-26T13:36:58.396Z,101153.25
2022-10-26T13:39:38.138Z,101152.88
2022-10-26T13:42:08.662Z,101146.59
2022-10-26T13:44:42.422Z,101146.34
2022-10-26T13:47:30.094Z,101139.16
2022-10-26T13:50:07.310Z,101134.59
2022-10-26T13:52:40.976Z,101140.75
2022-10-26T13:55:15.155Z,101133.88
2022-10-26T13:57:45.237Z,101128.72
2022-10-26T14:00:23.676Z,101123.59
2022-10-26T14:02:52.673Z,101131.31
2022-10-26T14:05:21.214Z,101137.44
2022-10-26T14:07:57.626Z,101138.16
2022-10-26T14:10:29.230Z,101139.06
2022-10-26T14:12:59.042Z,101145.00
2022-10-26T14:15:32.570Z,101144.88
2022-10-26T14:18:03.494Z,101149.34
2022-10-26T14:20:32.370Z,101150.16
2022-10-26T14:23:00.574Z,101151.06
2022-10-26T14:25:42.502Z,101154.78
2022-10-26T14:28:29.792Z,101141.84
2022-10-26T14:31:21.992Z,101140.03
2022-10-26T14:33:49.599Z,101136.41
2022-10-26T14:36:20.182Z,101134.53
2022-10-26T14:38:55.178Z,101139.84
2022-10-26T14:41:24.901Z,101130.84
2022-10-26T14:43:53.196Z,101132.44
2022-10-26T14:46:21.566Z,101127.84
2022-10-26T14:49:00.550Z,101133.09
2022-10-26T14:51:35.163Z,101132.09
2022-10-26T14:54:04.377Z,101133.84
2022-10-26T14:56:38.724Z,101130.56
2022-10-26T14:59:33.555Z,101142.25
2022-10-26T15:02:21.139Z,101143.50
2022-10-26T15:05:25.200Z,101148.84
2022-10-26T15:07:53.407Z,101144.50
2022-10-26T15:10:36.222Z,101144.59
2022-10-26T15:13:21.480Z,101146.25
2022-10-26T15:15:54.929Z,101139.06
2022-10-26T15:18:30.615Z,101146.00
2022-10-26T15:20:58.791Z,101137.19
2022-10-26T15:23:28.765Z,101133.69
2022-10-26T15:25:59.921Z,101149.59
2022-10-26T15:28:38.553Z,101140.63
2022-10-26T15:31:34.002Z,101138.09
2022-10-26T15:34:01.347Z,101131.31
2022-10-26T15:36:30.823Z,101141.94
2022-10-26T15:39:00.512Z,101140.16
2022-10-26T15:41:31.119Z,101135.81
2022-10-26T15:44:04.531Z,101133.16
2022-10-26T15:46:35.494Z,101134.97
2022-10-26T15:49:05.235Z,101129.75
2022-10-26T15:51:34.656Z,101136.31
2022-10-26T15:54:04.034Z,101144.38
2022-10-26T15:56:32.489Z,101142.69
2022-10-26T15:59:00.135Z,101142.53
2022-10-26T16:01:29.873Z,101139.19
2022-10-26T16:03:58.033Z,101140.38
2022-10-26T16:06:29.952Z,101149.25
2022-10-26T16:09:01.661Z,101155.53
2022-10-26T16:11:30.800Z,101153.78
2022-10-26T16:14:01.238Z,101159.94
2022-10-26T16:16:31.941Z,101160.94
2022-10-26T16:19:18.458Z,101161.06
2022-10-26T16:21:51.500Z,101160.38
2022-10-26T16:24:18.988Z,101163.03
2022-10-26T16:26:46.668Z,101160.44
2022-10-26T16:29:15.374Z,101164.22
2022-10-26T16:31:43.734Z,101159.91
2022-10-26T16:34:11.984Z,101173.41
2022-10-26T16:36:39.503Z,101164.75
2022-10-26T16:39:09.402Z,101165.56
2022-10-26T16:41:36.881Z,101165.84
2022-10-26T16:44:05.660Z,101168.69
2022-10-26T16:46:34.644Z,101166.19
2022-10-26T16:49:02.582Z,101167.88
2022-10-26T16:51:30.208Z,101169.91
2022-10-26T16:53:57.972Z,101174.69
2022-10-26T16:56:28.911Z,101177.41
2022-10-26T16:58:57.292Z,101170.41
2022-10-26T17:01:26.020Z,101177.56
2022-10-26T17:03:58.723Z,101174.16
2022-10-26T17:06:26.126Z,101176.84
2022-10-26T17:08:53.995Z,101175.19
2022-10-26T17:11:22.943Z,101177.88
2022-10-26T17:13:56.201Z,101183.22
2022-10-26T17:16:25.396Z,101191.16
2022-10-26T17:18:53.805Z,101190.47
2022-10-26T17:21:31.002Z,101188.78
2022-10-26T17:24:00.772Z,101189.63
2022-10-26T17:26:28.619Z,101183.47
2022-10-26T17:28:58.523Z,101203.69
2022-10-26T17:31:26.811Z,101199.41
2022-10-26T17:33:54.378Z,101189.78
2022-10-26T17:36:22.978Z,101188.09
2022-10-26T17:38:53.851Z,101182.88
2022-10-26T17:41:22.439Z,101186.47
2022-10-26T17:43:51.687Z,101193.50
2022-10-26T17:46:24.454Z,101187.50
2022-10-26T17:49:00.909Z,101197.16
2022-10-26T17:51:31.433Z,101191.09
2022-10-26T17:53:59.640Z,101191.91
2022-10-26T17:56:32.297Z,101186.66
2022-10-26T17:59:05.354Z,101185.84
2022-10-26T18:01:35.317Z,101184.00
2022-10-26T18:04:04.773Z,101184.06
2022-10-26T18:06:33.362Z,101190.34
2022-10-26T18:09:02.691Z,101201.84
2022-10-26T18:14:04.852Z,101195.94
2022-10-26T18:16:32.858Z,101196.91
2022-10-26T18:19:04.507Z,101193.38
2022-10-26T18:21:34.620Z,101200.28
2022-10-26T18:24:02.383Z,101206.47
2022-10-26T18:26:30.981Z,101207.38
2022-10-26T18:29:01.181Z,101213.63
2022-10-26T18:31:30.822Z,101219.00
2022-10-26T18:34:01.798Z,101213.78
2022-10-26T18:36:30.104Z,101207.59
2022-10-26T18:38:58.030Z,101211.19
2022-10-26T18:41:27.112Z,101214.56
2022-10-26T18:43:59.734Z,101218.91
2022-10-26T18:46:44.469Z,101217.34
2022-10-26T18:49:14.307Z,101213.00
2022-10-26T18:51:42.633Z,101216.56
2022-10-26T18:54:10.799Z,101224.53
2022-10-26T18:56:38.293Z,101227.22
2022-10-26T18:59:07.014Z,101219.22
2022-10-26T19:01:40.028Z,101218.28
2022-10-26T19:04:09.735Z,101213.00
2022-10-26T19:06:45.474Z,101220.88
2022-10-26T19:09:19.608Z,101214.81
2022-10-26T19:11:47.425Z,101213.97
2022-10-26T19:14:14.880Z,101207.88
2022-10-26T19:16:47.320Z,101206.09
2022-10-26T19:19:16.957Z,101211.22
2022-10-26T19:21:46.659Z,101205.09
2022-10-26T19:24:18.957Z,101210.38
2022-10-26T19:26:50.360Z,101203.41
2022-10-26T19:29:19.243Z,101205.28
2022-10-26T19:31:48.447Z,101212.41
2022-10-26T19:34:17.569Z,101209.78
2022-10-26T19:36:47.845Z,101205.44
2022-10-26T19:39:17.552Z,101208.97
2022-10-26T19:41:47.134Z,101209.03
2022-10-26T19:44:15.719Z,101204.63
2022-10-26T19:46:44.413Z,101204.69
2022-10-26T19:49:13.107Z,101202.06
2022-10-26T19:51:41.854Z,101199.44
2022-10-26T19:54:09.436Z,101195.84
2022-10-26T19:56:37.819Z,101200.97
2022-10-26T19:59:05.806Z,101191.31
2022-10-26T20:01:33.254Z,101188.75
2022-10-26T20:04:02.716Z,101190.56
2022-10-26T20:06:31.049Z,101189.63
2022-10-26T20:09:00.079Z,101183.38
2022-10-26T20:11:28.447Z,101179.91
2022-10-26T20:13:56.626Z,101181.75
2022-10-26T20:16:24.758Z,101179.13
2022-10-26T20:18:52.380Z,101185.28
2022-10-26T20:21:20.559Z,101190.59
2022-10-26T20:23:48.960Z,101197.66
2022-10-26T20:26:19.341Z,101191.50
2022-10-26T20:28:51.099Z,101198.50
2022-10-26T20:31:20.204Z,101198.53
2022-10-26T20:33:54.298Z,101200.34
2022-10-26T20:36:24.128Z,101196.03
2022-10-26T20:38:51.818Z,101203.03
2022-10-26T20:41:19.892Z,101195.94
2022-10-26T20:43:48.060Z,101185.47
2022-10-26T20:46:29.348Z,101174.00
2022-10-26T20:48:59.311Z,101174.94
2022-10-26T20:52:19.640Z,101174.84
2022-10-26T20:54:59.870Z,101172.22
2022-10-26T20:57:31.822Z,101171.44
2022-10-26T21:00:11.077Z,101173.28
2022-10-26T21:02:39.289Z,101160.13
2022-10-26T21:05:07.018Z,101156.56
2022-10-26T21:07:35.240Z,101159.22
2022-10-26T21:10:02.610Z,101157.50
2022-10-26T21:12:30.100Z,101145.09
2022-10-26T21:14:59.140Z,101143.47
2022-10-26T21:17:26.545Z,101142.47
2022-10-26T21:19:53.916Z,101144.28
2022-10-26T21:22:21.449Z,101147.88
2022-10-26T21:24:48.985Z,101153.16
2022-10-26T21:27:16.571Z,101154.19
2022-10-26T21:29:44.361Z,101147.22
2022-10-26T21:32:11.870Z,101147.91
2022-10-26T21:34:39.238Z,101146.25
2022-10-26T21:37:08.281Z,101148.03
2022-10-26T21:39:35.787Z,101148.94
2022-10-26T21:42:03.774Z,101146.41
2022-10-26T21:44:40.867Z,101151.63
2022-10-26T21:47:11.051Z,101148.06
2022-10-26T21:52:12.716Z,101135.78
2022-10-26T21:54:40.080Z,101127.00
2022-10-26T21:57:07.495Z,101127.94
2022-10-26T21:59:34.876Z,101120.06
2022-10-26T22:02:03.306Z,101128.78
2022-10-26T22:04:30.825Z,101121.81
2022-10-26T22:06:58.326Z,101125.25
2022-10-26T22:09:25.789Z,101123.53
2022-10-26T22:11:56.839Z,101119.09
2022-10-26T22:14:24.740Z,101118.25
2022-10-26T22:16:52.594Z,101118.34
2022-10-26T22:19:20.395Z,101113.00
2022-10-26T22:21:47.843Z,101120.81
2022-10-26T22:24:15.422Z,101108.50
2022-10-26T22:26:44.971Z,101114.63
2022-10-26T22:29:12.483Z,101096.22
2022-10-26T22:31:41.354Z,101094.34
2022-10-26T22:34:15.711Z,101084.72
2022-10-26T22:36:43.870Z,101071.63
2022-10-26T22:39:11.319Z,101062.88
2022-10-26T22:41:41.670Z,101042.66
2022-10-26T22:44:09.975Z,101036.56
2022-10-26T22:46:37.827Z,101055.00
2022-10-26T22:49:05.595Z,101049.84
2022-10-26T22:51:34.940Z,101052.44
2022-10-26T22:54:04.092Z,101049.78
2022-10-26T22:56:34.407Z,101050.69
2022-10-26T22:59:02.248Z,101041.84
2022-10-26T23:01:34.121Z,101039.22
2022-10-26T23:04:03.525Z,101042.69
2022-10-26T23:06:32.735Z,101042.72
2022-10-26T23:09:01.344Z,101056.75
2022-10-26T23:11:31.564Z,101055.06
2022-10-26T23:14:02.401Z,101053.25
2022-10-26T23:16:30.993Z,101050.69
2022-10-26T23:18:59.754Z,101042.75
2022-10-26T23:21:29.270Z,101034.88
2022-10-26T23:23:57.646Z,101024.34
2022-10-26T23:26:26.308Z,101029.72
2022-10-26T23:28:55.123Z,101027.97
2022-10-26T23:31:28.469Z,101028.00
2022-10-26T23:33:58.059Z,101029.81
2022-10-26T23:36:25.651Z,101028.88
2022-10-26T23:38:53.894Z,101022.81
2022-10-26T23:41:21.846Z,101024.50
2022-10-26T23:43:50.919Z,101018.34
2022-10-26T23:46:18.428Z,101014.00
2022-10-26T23:48:46.012Z,101016.66
2022-10-26T23:51:13.462Z,101014.91
2022-10-26T23:53:42.209Z,101014.97
2022-10-26T23:56:10.858Z,101021.13
2022-10-26T23:58:39.113Z,101024.59
